TimeEDT,TemperatureF,Dew PointF,Humidity,Sea Level PressureIn,VisibilityMPH,Wind Direction,Wind SpeedMPH,Gust SpeedMPH,PrecipitationIn,Events,Conditions,WindDirDegrees,DateUTC
12:54 AM,43.0,35.1,74,30.07,10.0,Calm,Calm,-,N/A,,Clear,0,2013-05-08 04:54:00
1:54 AM,41.0,34.0,76,30.06,10.0,Calm,Calm,-,N/A,,Clear,0,2013-05-08 05:54:00
2:54 AM,43.0,36.0,76,30.05,10.0,Calm,Calm,-,N/A,,Clear,0,2013-05-08 06:54:00
3:54 AM,41.0,37.0,86,30.05,10.0,Calm,Calm,-,N/A,,Clear,0,2013-05-08 07:54:00
4:54 AM,39.9,36.0,86,30.05,10.0,Calm,Calm,-,N/A,,Clear,0,2013-05-08 08:54:00
5:54 AM,37.9,35.1,89,30.06,10.0,Calm,Calm,-,N/A,,Clear,0,2013-05-08 09:54:00
6:54 AM,39.9,37.0,89,30.06,10.0,Calm,Calm,-,N/A,,Clear,0,2013-05-08 10:54:00
7:54 AM,50.0,42.1,74,30.07,10.0,Calm,Calm,-,N/A,,Clear,0,2013-05-08 11:54:00
8:54 AM,59.0,39.0,48,30.08,10.0,Calm,Calm,-,N/A,,Clear,0,2013-05-08 12:54:00
9:54 AM,66.9,35.1,31,30.07,10.0,SSE,3.5,-,N/A,,Clear,150,2013-05-08 13:54:00
10:54 AM,72.0,30.9,22,30.06,10.0,SSE,4.6,-,N/A,,Clear,160,2013-05-08 14:54:00
11:54 AM,75.0,35.1,23,30.06,10.0,SE,8.1,-,N/A,,Clear,140,2013-05-08 15:54:00
12:54 PM,75.9,37.9,25,30.05,10.0,ESE,6.9,-,N/A,,Clear,120,2013-05-08 16:54:00
1:54 PM,75.9,41.0,29,30.04,10.0,East,10.4,-,N/A,,Clear,100,2013-05-08 17:54:00
2:54 PM,73.9,36.0,25,30.02,10.0,ESE,12.7,-,N/A,,Clear,110,2013-05-08 18:54:00
3:54 PM,75.0,37.0,25,30.01,10.0,SE,15.0,-,N/A,,Clear,130,2013-05-08 19:54:00
4:54 PM,73.9,36.0,25,30.00,10.0,SE,13.8,-,N/A,,Clear,130,2013-05-08 20:54:00
5:54 PM,70.0,35.1,28,30.01,10.0,ESE,8.1,-,N/A,,Clear,120,2013-05-08 21:54:00
6:54 PM,69.1,35.1,29,30.00,10.0,ESE,5.8,-,N/A,,Clear,120,2013-05-08 22:54:00
7:54 PM,64.0,37.0,37,29.99,10.0,SSE,3.5,-,N/A,,Clear,160,2013-05-08 23:54:00
8:54 PM,59.0,37.0,44,29.99,9.0,Calm,Calm,-,N/A,,Clear,0,2013-05-09 00:54:00
9:54 PM,53.1,39.0,59,29.99,10.0,Calm,Calm,-,N/A,,Clear,0,2013-05-09 01:54:00
10:54 PM,52.0,39.0,61,29.99,10.0,Calm,Calm,-,N/A,,Clear,0,2013-05-09 02:54:00
11:54 PM,50.0,43.0,77,29.98,10.0,Calm,Calm,-,N/A,,Clear,0,2013-05-09 03:54:00